Time;durP1;ratioP1;P1;durP2;ratioP2;P2;SDS_P1;SDS_P2;PMS_P1;PMS_P2;Temp;Humidity;BMP_temperature;BMP_pressure;BME280_temperature;BME280_humidity;BME280_pressure;Samples;Min_cycle;Max_cycle;Signal;HPM_P1;HPM_P2
2023/08/27 00:00:24;;;;;;;3.53;3.27;;;17.70;95.00;;;;;;5270168;28;20238;-45
2023/08/27 00:02:55;;;;;;;4.30;3.20;;;17.60;96.00;;;;;;5268665;28;20214;-45
2023/08/27 00:05:26;;;;;;;7.53;3.90;;;17.60;96.70;;;;;;5267689;28;20650;-45
2023/08/27 00:07:57;;;;;;;5.33;3.50;;;17.60;97.60;;;;;;5268252;28;20665;-46
2023/08/27 00:10:28;;;;;;;4.17;3.47;;;17.60;98.10;;;;;;5265675;28;20178;-46
2023/08/27 00:12:59;;;;;;;5.10;3.57;;;17.50;98.90;;;;;;5264880;28;20467;-46
2023/08/27 00:15:29;;;;;;;3.43;3.10;;;17.50;99.50;;;;;;5265480;28;20222;-46
2023/08/27 00:18:00;;;;;;;6.07;3.43;;;17.40;99.40;;;;;;5268805;28;20177;-46
2023/08/27 00:20:33;;;;;;;6.97;3.00;;;17.40;99.80;;;;;;5271603;28;20569;-45
2023/08/27 00:23:04;;;;;;;4.00;2.97;;;17.40;99.90;;;;;;5273769;28;20202;-46
2023/08/27 00:25:35;;;;;;;6.53;2.93;;;17.30;99.90;;;;;;5269709;28;20459;-45
2023/08/27 00:28:06;;;;;;;4.07;3.57;;;17.30;99.90;;;;;;5269426;28;20552;-46
2023/08/27 00:30:37;;;;;;;4.27;3.53;;;17.30;99.90;;;;;;5269831;28;20706;-45
2023/08/27 00:33:08;;;;;;;4.07;3.30;;;17.30;99.90;;;;;;5272069;28;20455;-45
2023/08/27 00:35:38;;;;;;;6.60;3.40;;;17.30;99.90;;;;;;5271330;28;20288;-45
2023/08/27 00:38:09;;;;;;;2.97;2.73;;;17.30;99.90;;;;;;5263796;28;20182;-45
2023/08/27 00:40:41;;;;;;;3.37;3.07;;;17.20;99.90;;;;;;5262387;28;20201;-44
2023/08/27 00:43:11;;;;;;;7.80;3.27;;;17.20;99.90;;;;;;5262036;28;20235;-46
2023/08/27 00:45:42;;;;;;;3.63;3.33;;;17.10;99.90;;;;;;5270672;28;20427;-46
2023/08/27 00:48:13;;;;;;;3.97;3.60;;;17.10;99.90;;;;;;5268220;28;20211;-45
2023/08/27 00:50:44;;;;;;;4.43;3.13;;;17.10;99.90;;;;;;5263548;28;20424;-45
2023/08/27 00:53:16;;;;;;;4.03;3.60;;;17.10;99.90;;;;;;5270254;28;20174;-45
2023/08/27 00:55:46;;;;;;;4.63;3.13;;;17.00;99.90;;;;;;5266023;28;20500;-45
2023/08/27 00:58:17;;;;;;;3.03;2.70;;;17.00;99.90;;;;;;5269077;28;20473;-49
2023/08/27 01:00:48;;;;;;;11.00;3.47;;;17.00;99.90;;;;;;5259964;28;20256;-45
2023/08/27 01:03:19;;;;;;;6.60;3.03;;;17.00;99.90;;;;;;5253547;28;20186;-46
2023/08/27 01:05:50;;;;;;;2.77;2.57;;;16.90;99.90;;;;;;5267610;28;20431;-45
2023/08/27 01:08:42;;;;;;;5.23;3.80;;;17.00;99.90;;;;;;5268766;28;20181;-45
2023/08/27 01:11:25;;;;;;;2.77;2.57;;;17.00;99.90;;;;;;5263909;28;20207;-44
2023/08/27 01:14:03;;;;;;;4.13;3.40;;;16.90;99.90;;;;;;5261009;28;20440;-46
2023/08/27 01:16:35;;;;;;;8.73;4.47;;;16.90;99.90;;;;;;5263262;28;20432;-46
2023/08/27 01:19:13;;;;;;;10.23;4.33;;;16.90;99.90;;;;;;5269660;28;20420;-47
2023/08/27 01:21:44;;;;;;;3.23;2.93;;;16.90;99.90;;;;;;5268934;28;20553;-45
2023/08/27 01:24:15;;;;;;;3.57;3.23;;;17.00;99.90;;;;;;5272464;28;20503;-47
2023/08/27 01:27:15;;;;;;;9.40;3.00;;;16.90;99.90;;;;;;5266988;28;20496;-46
2023/08/27 01:30:29;;;;;;;4.50;3.13;;;16.90;99.90;;;;;;5264553;28;20186;-45
2023/08/27 01:33:06;;;;;;;5.10;3.47;;;16.90;99.90;;;;;;5240129;28;20466;-45
2023/08/27 01:35:37;;;;;;;6.07;3.03;;;16.90;99.90;;;;;;5262904;28;20448;-46
2023/08/27 01:38:08;;;;;;;3.40;3.10;;;16.90;99.90;;;;;;5270267;28;20459;-44
2023/08/27 01:40:40;;;;;;;6.30;3.30;;;16.90;99.90;;;;;;5275451;28;20518;-45
2023/08/27 01:43:11;;;;;;;7.50;3.83;;;17.00;99.90;;;;;;5266945;28;20600;-45
2023/08/27 01:45:41;;;;;;;3.80;3.20;;;17.00;99.90;;;;;;5265682;28;20450;-45
2023/08/27 01:48:12;;;;;;;5.63;3.37;;;17.00;99.90;;;;;;5269525;28;20186;-46
2023/08/27 01:50:43;;;;;;;4.80;3.03;;;17.00;99.90;;;;;;5260699;28;20305;-46
2023/08/27 01:53:13;;;;;;;4.30;3.67;;;17.10;99.90;;;;;;5264184;28;20182;-45
2023/08/27 01:55:44;;;;;;;5.20;3.70;;;17.10;99.90;;;;;;5266751;28;20189;-46
2023/08/27 01:58:14;;;;;;;4.33;3.93;;;17.10;99.90;;;;;;5266007;28;20265;-46
2023/08/27 02:00:48;;;;;;;3.77;3.53;;;17.00;99.90;;;;;;5263275;28;20547;-45
2023/08/27 02:03:18;;;;;;;4.70;3.20;;;17.10;99.90;;;;;;5264500;28;20181;-47
2023/08/27 02:05:49;;;;;;;4.83;3.03;;;17.00;99.90;;;;;;5264743;28;20431;-45
2023/08/27 02:08:19;;;;;;;5.87;3.73;;;17.00;99.90;;;;;;5262514;28;20367;-45
2023/08/27 02:10:50;;;;;;;4.03;3.60;;;17.00;99.90;;;;;;5267087;28;20268;-45
2023/08/27 02:13:20;;;;;;;3.90;3.60;;;17.00;99.90;;;;;;5271941;28;20524;-46
2023/08/27 02:15:51;;;;;;;3.60;3.37;;;17.00;99.90;;;;;;5267924;28;20178;-46
2023/08/27 02:18:22;;;;;;;5.47;3.00;;;17.00;99.90;;;;;;5271617;28;20212;-46
2023/08/27 02:20:55;;;;;;;3.30;3.00;;;16.90;99.90;;;;;;5268889;28;20270;-46
2023/08/27 02:23:25;;;;;;;6.97;4.13;;;16.90;99.90;;;;;;5266888;28;20182;-46
2023/08/27 02:25:56;;;;;;;5.53;3.70;;;16.90;99.90;;;;;;5262358;28;21170;-46
2023/08/27 02:28:27;;;;;;;3.47;2.60;;;16.90;99.90;;;;;;5269752;28;20621;-46
2023/08/27 02:30:57;;;;;;;3.27;2.90;;;16.80;99.90;;;;;;5261526;28;20186;-44
2023/08/27 02:33:28;;;;;;;4.80;3.30;;;16.80;99.90;;;;;;5262287;28;20443;-45
2023/08/27 02:35:59;;;;;;;3.73;3.17;;;16.90;99.90;;;;;;5265263;28;20190;-45
2023/08/27 02:38:29;;;;;;;4.23;3.77;;;16.90;99.90;;;;;;5264856;28;20268;-45
2023/08/27 02:41:00;;;;;;;3.37;3.07;;;16.90;99.90;;;;;;5264339;28;20206;-45
2023/08/27 02:43:30;;;;;;;5.10;3.70;;;16.90;99.90;;;;;;5265537;28;20209;-45
2023/08/27 02:46:02;;;;;;;3.60;3.40;;;16.80;99.90;;;;;;5262635;28;20189;-45
2023/08/27 02:48:32;;;;;;;5.33;3.43;;;16.80;99.90;;;;;;5262554;28;20177;-45
2023/08/27 02:51:03;;;;;;;6.20;3.90;;;16.90;99.90;;;;;;5260359;28;20463;-46
2023/08/27 02:53:33;;;;;;;6.47;4.30;;;16.90;99.90;;;;;;5265274;28;20518;-44
2023/08/27 02:56:04;;;;;;;4.57;3.23;;;16.90;99.90;;;;;;5269644;28;20197;-44
2023/08/27 02:58:35;;;;;;;4.33;4.03;;;16.90;99.90;;;;;;5270593;28;20174;-45
2023/08/27 03:01:05;;;;;;;4.40;3.63;;;16.90;99.90;;;;;;5266718;28;20236;-45
2023/08/27 03:03:36;;;;;;;5.33;3.87;;;16.80;99.90;;;;;;5264171;28;20170;-44
2023/08/27 03:06:06;;;;;;;4.40;4.00;;;16.90;99.90;;;;;;5271537;28;20175;-45
2023/08/27 03:08:37;;;;;;;9.30;4.20;;;16.90;99.90;;;;;;5271718;28;20264;-45
2023/08/27 03:11:08;;;;;;;3.70;3.30;;;16.90;99.90;;;;;;5275660;28;20875;-45
2023/08/27 03:13:39;;;;;;;6.20;3.83;;;16.90;99.90;;;;;;5272963;28;20197;-45
2023/08/27 03:16:10;;;;;;;5.97;4.00;;;16.90;99.90;;;;;;5269235;28;20518;-44
2023/08/27 03:18:40;;;;;;;8.20;4.40;;;16.90;99.90;;;;;;5270548;28;20439;-44
2023/08/27 03:21:11;;;;;;;7.10;4.03;;;16.80;99.90;;;;;;5267089;28;20212;-46
2023/08/27 03:23:41;;;;;;;6.40;4.33;;;16.80;99.90;;;;;;5262594;28;20231;-44
2023/08/27 03:26:12;;;;;;;5.80;3.83;;;16.70;99.90;;;;;;5262308;28;20181;-44
2023/08/27 03:28:43;;;;;;;7.53;4.67;;;16.70;99.90;;;;;;5270770;28;20706;-46
2023/08/27 03:31:15;;;;;;;3.83;3.53;;;16.70;99.90;;;;;;5264973;28;20572;-45
2023/08/27 03:33:45;;;;;;;5.27;4.40;;;16.70;99.90;;;;;;5261508;28;20446;-46
2023/08/27 03:36:16;;;;;;;5.87;3.90;;;16.70;99.90;;;;;;5266488;28;20507;-45
2023/08/27 03:38:47;;;;;;;4.63;3.67;;;16.60;99.90;;;;;;5266638;28;20181;-45
2023/08/27 03:41:17;;;;;;;4.73;4.20;;;16.60;99.90;;;;;;5247675;28;20210;-45
2023/08/27 03:43:48;;;;;;;6.03;4.37;;;16.60;99.90;;;;;;5264337;28;20208;-45
2023/08/27 03:46:19;;;;;;;8.63;4.63;;;16.60;99.90;;;;;;5261905;28;20173;-46
2023/08/27 03:48:49;;;;;;;3.83;3.50;;;16.60;99.90;;;;;;5261466;28;20217;-46
2023/08/27 03:51:20;;;;;;;7.30;4.40;;;16.60;99.90;;;;;;5260314;28;20735;-45
2023/08/27 03:53:50;;;;;;;5.40;4.33;;;16.60;99.90;;;;;;5261237;28;20190;-43
2023/08/27 03:56:21;;;;;;;7.60;4.40;;;16.50;99.90;;;;;;5266126;28;20182;-46
2023/08/27 03:58:52;;;;;;;6.67;4.43;;;16.50;99.90;;;;;;5266975;28;20197;-45
2023/08/27 04:01:22;;;;;;;7.57;4.57;;;16.60;99.90;;;;;;5257933;28;20245;-44
2023/08/27 04:03:54;;;;;;;5.23;4.40;;;16.60;99.90;;;;;;5243664;28;20234;-43
2023/08/27 04:06:25;;;;;;;7.63;5.23;;;16.60;99.90;;;;;;5263989;28;20257;-44
2023/08/27 04:08:56;;;;;;;5.37;4.70;;;16.60;99.90;;;;;;5262966;28;21045;-44
2023/08/27 04:11:27;;;;;;;4.47;4.17;;;16.60;99.90;;;;;;5259114;28;20198;-45
2023/08/27 04:13:57;;;;;;;7.40;5.33;;;16.60;99.90;;;;;;5266827;28;20634;-46
2023/08/27 04:16:28;;;;;;;5.63;5.13;;;16.50;99.90;;;;;;5264257;28;20194;-44
2023/08/27 04:18:59;;;;;;;5.20;4.70;;;16.50;99.90;;;;;;5261315;28;20182;-45
2023/08/27 04:21:29;;;;;;;6.60;5.10;;;16.50;99.90;;;;;;5257551;28;20682;-45
2023/08/27 04:24:00;;;;;;;6.83;4.80;;;16.50;99.90;;;;;;5264578;28;20181;-44
2023/08/27 04:26:31;;;;;;;6.33;5.40;;;16.50;99.90;;;;;;5264154;28;20239;-46
2023/08/27 04:29:02;;;;;;;8.20;4.97;;;16.40;99.90;;;;;;5263417;28;20189;-45
2023/08/27 04:31:32;;;;;;;6.00;4.70;;;16.40;99.90;;;;;;5264323;28;20202;-44
2023/08/27 04:34:03;;;;;;;19.37;4.50;;;16.40;99.90;;;;;;5264372;28;20456;-45
2023/08/27 04:36:33;;;;;;;5.23;4.73;;;16.30;99.90;;;;;;5262074;28;20182;-44
2023/08/27 04:39:04;;;;;;;7.40;4.80;;;16.30;99.90;;;;;;5260465;28;20190;-47
2023/08/27 04:41:35;;;;;;;6.50;4.80;;;16.30;99.90;;;;;;5260000;28;20209;-45
2023/08/27 04:44:05;;;;;;;5.77;4.93;;;16.20;99.90;;;;;;5269698;28;20262;-46
2023/08/27 04:46:36;;;;;;;7.77;5.40;;;16.20;99.90;;;;;;5265140;28;20201;-45
2023/08/27 04:49:07;;;;;;;9.30;4.90;;;16.20;99.90;;;;;;5262934;28;20189;-45
2023/08/27 04:51:37;;;;;;;8.43;5.17;;;16.30;99.90;;;;;;5263577;28;20223;-45
2023/08/27 04:54:08;;;;;;;8.40;5.03;;;16.30;99.90;;;;;;5260227;28;20190;-44
2023/08/27 04:56:39;;;;;;;5.27;4.80;;;16.40;99.90;;;;;;5259984;28;20186;-45
2023/08/27 04:59:09;;;;;;;6.13;4.80;;;16.50;99.90;;;;;;5248508;28;20572;-45
2023/08/27 05:01:40;;;;;;;4.97;4.47;;;16.60;99.90;;;;;;5260690;28;20236;-46
2023/08/27 05:04:11;;;;;;;4.80;4.40;;;16.60;99.90;;;;;;5263212;28;20617;-44
2023/08/27 05:06:41;;;;;;;5.53;5.03;;;16.70;99.90;;;;;;5245021;28;20256;-45
2023/08/27 05:09:12;;;;;;;6.47;4.13;;;16.70;99.90;;;;;;5259895;28;20213;-45
2023/08/27 05:11:43;;;;;;;5.50;4.77;;;16.70;99.90;;;;;;5260994;28;20201;-45
2023/08/27 05:14:13;;;;;;;4.70;4.30;;;16.70;99.90;;;;;;5257761;28;20574;-45
2023/08/27 05:16:44;;;;;;;6.87;3.73;;;16.60;99.90;;;;;;5256436;28;20186;-45
2023/08/27 05:19:14;;;;;;;5.53;4.67;;;16.60;99.90;;;;;;5264814;28;20186;-45
2023/08/27 05:21:45;;;;;;;9.70;4.30;;;16.70;99.90;;;;;;5268906;28;20205;-46
2023/08/27 05:24:16;;;;;;;7.07;4.63;;;16.70;99.90;;;;;;5265749;28;20178;-46
2023/08/27 05:26:46;;;;;;;9.70;3.90;;;16.80;99.90;;;;;;5266827;28;20231;-46
2023/08/27 05:29:17;;;;;;;6.77;4.53;;;16.90;99.90;;;;;;5260318;28;20265;-45
2023/08/27 05:31:48;;;;;;;3.73;3.47;;;17.00;99.90;;;;;;5263185;28;20279;-45
2023/08/27 05:34:19;;;;;;;5.23;4.37;;;17.30;99.90;;;;;;5264719;28;20455;-47
2023/08/27 05:36:49;;;;;;;4.07;3.80;;;17.60;99.90;;;;;;5261658;28;20213;-46
2023/08/27 05:39:20;;;;;;;4.30;3.90;;;17.90;99.90;;;;;;5261878;28;20286;-45
2023/08/27 05:41:51;;;;;;;5.00;3.80;;;18.20;99.90;;;;;;5258250;28;20224;-46
2023/08/27 05:44:22;;;;;;;6.03;3.70;;;18.20;99.90;;;;;;5260157;28;20174;-46
2023/08/27 05:46:53;;;;;;;4.90;4.30;;;18.10;99.90;;;;;;5260928;28;20465;-46
2023/08/27 05:49:23;;;;;;;6.97;4.73;;;18.00;99.90;;;;;;5266676;28;20435;-45
2023/08/27 05:51:54;;;;;;;3.77;3.57;;;17.90;99.90;;;;;;5260095;28;20237;-45
2023/08/27 05:54:25;;;;;;;5.60;3.63;;;18.00;99.90;;;;;;5253807;28;20189;-46
2023/08/27 05:56:55;;;;;;;5.43;4.00;;;18.00;99.90;;;;;;5267310;23;20259;-44
2023/08/27 05:59:26;;;;;;;5.40;3.63;;;18.20;99.90;;;;;;5244043;28;20246;-43
2023/08/27 06:01:58;;;;;;;5.70;3.83;;;18.30;99.90;;;;;;5246204;28;20218;-43
2023/08/27 06:04:28;;;;;;;3.87;3.57;;;18.20;99.90;;;;;;5227284;28;20187;-44
2023/08/27 06:06:59;;;;;;;5.70;3.87;;;18.20;99.90;;;;;;5238812;28;20556;-45
2023/08/27 06:09:29;;;;;;;6.40;3.83;;;18.20;99.90;;;;;;5242369;28;20186;-44
2023/08/27 06:12:00;;;;;;;5.10;4.00;;;18.40;99.90;;;;;;5244580;28;20193;-43
2023/08/27 06:14:31;;;;;;;4.43;3.63;;;18.50;99.90;;;;;;5247825;28;20194;-43
2023/08/27 06:17:02;;;;;;;4.00;3.80;;;18.40;99.90;;;;;;5241697;28;20681;-43
2023/08/27 06:19:33;;;;;;;4.60;3.80;;;18.20;99.90;;;;;;5245864;28;20529;-43
2023/08/27 06:22:03;;;;;;;4.13;3.47;;;18.20;99.90;;;;;;5244175;28;20291;-44
2023/08/27 06:24:34;;;;;;;4.10;3.80;;;18.30;99.90;;;;;;5241159;28;20182;-44
2023/08/27 06:27:05;;;;;;;6.33;3.90;;;18.50;99.90;;;;;;5244612;28;20229;-43
2023/08/27 06:29:35;;;;;;;3.63;3.13;;;18.50;99.90;;;;;;5249081;28;20170;-44
2023/08/27 06:32:06;;;;;;;6.80;3.97;;;18.80;99.90;;;;;;5250479;28;20185;-44
2023/08/27 06:34:37;;;;;;;6.70;3.40;;;19.10;99.90;;;;;;5252414;28;20178;-44
2023/08/27 06:37:07;;;;;;;5.57;4.20;;;19.20;99.90;;;;;;5247668;28;20206;-43
2023/08/27 06:39:38;;;;;;;3.90;3.60;;;19.20;99.90;;;;;;5254842;28;20444;-44
2023/08/27 06:42:09;;;;;;;6.17;3.37;;;19.00;99.90;;;;;;5244908;28;20674;-44
2023/08/27 06:44:39;;;;;;;3.80;3.53;;;19.00;99.90;;;;;;5246681;28;20266;-44
2023/08/27 06:47:11;;;;;;;3.43;3.20;;;19.30;99.90;;;;;;5248218;28;20206;-45
2023/08/27 06:49:42;;;;;;;5.07;3.50;;;19.70;99.90;;;;;;5245137;28;20727;-43
2023/08/27 06:52:12;;;;;;;3.73;3.40;;;20.10;99.90;;;;;;5248253;28;20437;-44
2023/08/27 06:54:43;;;;;;;10.80;3.30;;;20.60;99.90;;;;;;5246597;28;20174;-46
2023/08/27 06:57:13;;;;;;;3.87;2.87;;;21.50;99.90;;;;;;5244689;28;20214;-44
2023/08/27 06:59:44;;;;;;;3.27;3.00;;;23.70;98.40;;;;;;5246298;28;20250;-44
2023/08/27 07:02:15;;;;;;;3.57;3.30;;;24.90;92.20;;;;;;5247339;28;20202;-44
2023/08/27 07:04:45;;;;;;;9.03;3.70;;;24.30;89.40;;;;;;5245593;28;20243;-44
2023/08/27 07:07:16;;;;;;;7.37;3.40;;;23.30;90.70;;;;;;5247391;28;20742;-44
2023/08/27 07:09:47;;;;;;;5.47;2.83;;;22.10;92.00;;;;;;5248413;28;20734;-45
2023/08/27 07:12:20;;;;;;;6.30;2.80;;;21.10;93.70;;;;;;5250365;28;20184;-43
2023/08/27 07:14:51;;;;;;;3.10;2.90;;;20.50;95.80;;;;;;5242549;28;20187;-44
2023/08/27 07:17:22;;;;;;;5.03;3.20;;;20.10;97.10;;;;;;5246853;28;20464;-45
2023/08/27 07:19:52;;;;;;;3.13;2.93;;;19.80;98.30;;;;;;5247539;28;20179;-44
2023/08/27 07:22:23;;;;;;;4.20;2.93;;;19.60;99.00;;;;;;5242106;28;20237;-45
2023/08/27 07:24:54;;;;;;;2.83;2.63;;;19.70;99.10;;;;;;5235955;28;20588;-44
2023/08/27 07:27:24;;;;;;;3.87;2.47;;;19.80;99.10;;;;;;5242307;28;20203;-44
2023/08/27 07:29:55;;;;;;;2.40;2.13;;;19.90;98.60;;;;;;5216015;28;20213;-45
2023/08/27 07:32:26;;;;;;;2.20;2.00;;;20.00;97.70;;;;;;5235679;28;20210;-43
2023/08/27 07:34:56;;;;;;;2.20;2.00;;;20.10;97.60;;;;;;5222090;28;20202;-45
2023/08/27 07:37:27;;;;;;;4.53;2.40;;;20.00;97.90;;;;;;5239761;28;20205;-44
2023/08/27 07:39:58;;;;;;;3.83;2.27;;;20.00;97.90;;;;;;5246115;28;20190;-44
2023/08/27 07:42:28;;;;;;;2.80;2.10;;;20.10;97.70;;;;;;5243344;28;20202;-46
2023/08/27 07:44:59;;;;;;;3.30;2.63;;;20.20;97.20;;;;;;5245789;28;20179;-45
2023/08/27 07:47:30;;;;;;;2.53;2.33;;;20.70;96.70;;;;;;5227755;28;20512;-49
2023/08/27 07:50:00;;;;;;;4.27;2.17;;;21.20;95.70;;;;;;5236710;28;20912;-44
2023/08/27 07:52:31;;;;;;;3.20;2.37;;;21.40;94.40;;;;;;5243730;28;20179;-44
2023/08/27 07:55:03;;;;;;;3.63;2.20;;;21.90;93.70;;;;;;5239662;28;20200;-47
2023/08/27 07:57:33;;;;;;;3.60;2.57;;;22.20;92.60;;;;;;5240036;28;20198;-44
2023/08/27 08:00:06;;;;;;;2.40;2.30;;;22.10;91.50;;;;;;5245637;28;20466;-44
2023/08/27 08:02:37;;;;;;;1.97;1.83;;;22.10;91.60;;;;;;5250080;28;20202;-44
2023/08/27 08:05:09;;;;;;;2.27;2.10;;;22.00;91.50;;;;;;5237396;28;20440;-44
2023/08/27 08:07:40;;;;;;;3.23;2.30;;;22.30;90.40;;;;;;5249292;28;20444;-44
2023/08/27 08:10:11;;;;;;;1.77;1.67;;;23.20;87.30;;;;;;5252747;28;20451;-44
2023/08/27 08:12:41;;;;;;;2.17;2.00;;;23.60;84.30;;;;;;5253411;28;20506;-44
2023/08/27 08:15:12;;;;;;;1.57;1.57;;;23.90;83.00;;;;;;5248535;28;20186;-44
2023/08/27 08:17:44;;;;;;;2.50;2.23;;;23.80;81.10;;;;;;5248542;28;20171;-44
2023/08/27 08:20:14;;;;;;;2.00;1.90;;;23.90;80.00;;;;;;5249489;28;20235;-44
2023/08/27 08:22:45;;;;;;;1.53;1.53;;;24.30;77.50;;;;;;5245751;28;20566;-44
2023/08/27 08:25:16;;;;;;;1.43;1.43;;;24.50;74.30;;;;;;5246304;28;20174;-44
2023/08/27 08:27:46;;;;;;;2.63;2.00;;;24.50;73.30;;;;;;5246805;28;20190;-44
2023/08/27 08:30:17;;;;;;;2.63;1.40;;;24.30;71.70;;;;;;5249483;28;20175;-45
2023/08/27 08:32:48;;;;;;;2.00;1.63;;;24.10;72.30;;;;;;5250547;28;20194;-44
2023/08/27 08:35:19;;;;;;;4.23;1.93;;;23.90;72.40;;;;;;5249508;28;20292;-44
2023/08/27 08:37:49;;;;;;;2.33;1.80;;;23.60;71.90;;;;;;5246725;28;20526;-44
2023/08/27 08:40:20;;;;;;;5.90;1.87;;;23.20;71.40;;;;;;5250205;28;20227;-46
2023/08/27 08:43:00;;;;;;;2.77;1.90;;;23.30;71.50;;;;;;5250941;28;20548;-44
2023/08/27 08:46:06;;;;;;;1.70;1.60;;;23.20;71.50;;;;;;5253774;28;20609;-44
2023/08/27 08:48:39;;;;;;;5.43;1.70;;;23.10;72.30;;;;;;5246771;28;20436;-44
2023/08/27 08:51:12;;;;;;;2.73;1.50;;;22.80;71.30;;;;;;5247566;28;20469;-45
2023/08/27 08:53:46;;;;;;;1.77;1.40;;;22.40;72.60;;;;;;5251745;28;20425;-45
2023/08/27 08:56:28;;;;;;;6.97;2.47;;;22.00;73.30;;;;;;5254679;28;20468;-44
2023/08/27 08:58:59;;;;;;;1.27;1.27;;;21.90;74.50;;;;;;5248816;28;20984;-45
2023/08/27 09:01:30;;;;;;;2.13;2.00;;;22.00;74.80;;;;;;5250709;28;20480;-44
2023/08/27 09:04:03;;;;;;;3.13;2.00;;;22.00;74.70;;;;;;5250525;28;20189;-44
2023/08/27 09:06:37;;;;;;;1.47;1.37;;;22.00;74.40;;;;;;5249198;28;20510;-45
2023/08/27 09:09:10;;;;;;;1.60;1.50;;;22.00;73.80;;;;;;5246924;28;21223;-44
2023/08/27 09:11:41;;;;;;;5.10;1.80;;;21.90;74.10;;;;;;5246902;28;20436;-45
2023/08/27 09:14:13;;;;;;;1.47;1.47;;;21.80;74.80;;;;;;5246189;28;20520;-45
2023/08/27 09:16:44;;;;;;;3.93;2.37;;;21.70;75.20;;;;;;5252910;28;20515;-44
2023/08/27 09:19:14;;;;;;;12.13;1.83;;;21.70;75.00;;;;;;5247661;28;20793;-45
2023/08/27 09:21:45;;;;;;;4.67;2.10;;;21.60;74.50;;;;;;5249378;28;20198;-46
2023/08/27 09:24:16;;;;;;;3.13;1.93;;;21.70;75.30;;;;;;5251013;28;20546;-46
2023/08/27 09:26:46;;;;;;;3.30;1.67;;;21.80;76.10;;;;;;5232783;28;20298;-44
2023/08/27 09:29:18;;;;;;;3.83;2.00;;;22.10;76.40;;;;;;5256366;28;20618;-45
2023/08/27 09:31:49;;;;;;;3.47;2.23;;;22.10;76.70;;;;;;5251554;28;20186;-46
2023/08/27 09:34:19;;;;;;;9.00;2.40;;;22.40;77.30;;;;;;5232004;28;20479;-46
2023/08/27 09:36:51;;;;;;;6.47;2.43;;;22.10;76.10;;;;;;5252855;28;20195;-46
2023/08/27 09:39:21;;;;;;;9.10;2.83;;;22.00;77.00;;;;;;5253811;28;20272;-44
2023/08/27 09:41:56;;;;;;;3.00;2.10;;;21.90;77.70;;;;;;5233772;28;20550;-44
2023/08/27 09:44:27;;;;;;;1.40;1.40;;;22.00;78.10;;;;;;5237145;28;20300;-44
2023/08/27 09:47:04;;;;;;;2.63;2.17;;;22.00;77.90;;;;;;5250874;28;21053;-45
2023/08/27 09:49:40;;;;;;;7.53;2.00;;;21.90;78.00;;;;;;5250322;28;21219;-44
2023/08/27 09:52:10;;;;;;;4.10;2.10;;;21.80;78.10;;;;;;5245778;28;20511;-45
2023/08/27 09:54:43;;;;;;;2.03;1.93;;;21.80;77.70;;;;;;5254292;28;20438;-45
2023/08/27 09:57:17;;;;;;;2.43;1.40;;;22.30;76.90;;;;;;5248499;28;20228;-44
2023/08/27 09:59:48;;;;;;;1.97;1.87;;;22.60;77.00;;;;;;5254911;28;20455;-46
2023/08/27 10:02:19;;;;;;;2.80;1.63;;;23.10;75.80;;;;;;5252517;28;20501;-45
2023/08/27 10:04:54;;;;;;;2.50;2.33;;;23.30;74.20;;;;;;5253198;28;20216;-46
2023/08/27 10:07:25;;;;;;;3.73;1.40;;;23.30;73.60;;;;;;5235468;28;20217;-45
2023/08/27 10:09:56;;;;;;;2.00;1.73;;;23.10;73.50;;;;;;5252269;28;20440;-44
2023/08/27 10:12:27;;;;;;;8.50;2.30;;;22.90;71.80;;;;;;5249546;28;20179;-45
2023/08/27 10:14:59;;;;;;;7.53;2.13;;;22.70;71.80;;;;;;5250245;28;20193;-44
2023/08/27 10:17:31;;;;;;;2.87;1.83;;;22.50;72.10;;;;;;5252077;28;20498;-44
2023/08/27 10:20:03;;;;;;;8.27;2.23;;;22.60;72.70;;;;;;5246968;28;20444;-44
2023/08/27 10:22:35;;;;;;;2.20;1.17;;;22.80;72.30;;;;;;5243529;28;20456;-45
2023/08/27 10:25:07;;;;;;;1.50;1.40;;;22.80;69.80;;;;;;5248249;28;20437;-45
2023/08/27 10:27:39;;;;;;;2.40;1.57;;;22.80;70.40;;;;;;5236264;28;20527;-46
2023/08/27 10:30:10;;;;;;;1.80;1.70;;;22.80;69.70;;;;;;5257878;28;20440;-44
2023/08/27 10:32:41;;;;;;;4.00;2.20;;;22.90;70.70;;;;;;5252614;28;20858;-45
2023/08/27 10:35:12;;;;;;;1.70;1.60;;;23.10;70.40;;;;;;5258352;28;20436;-45
2023/08/27 10:37:50;;;;;;;1.47;1.47;;;23.10;67.20;;;;;;5257119;28;20183;-45
2023/08/27 10:40:23;;;;;;;4.57;1.43;;;22.90;69.10;;;;;;5253666;28;20432;-45
2023/08/27 10:43:08;;;;;;;3.60;1.87;;;22.80;70.60;;;;;;5251850;28;20559;-45
2023/08/27 10:45:39;;;;;;;2.50;1.43;;;22.90;71.20;;;;;;5254109;28;20936;-45
2023/08/27 10:48:36;;;;;;;2.30;2.00;;;22.90;70.30;;;;;;5251061;28;20430;-46
2023/08/27 10:51:11;;;;;;;3.23;1.50;;;23.10;70.30;;;;;;5258261;28;20662;-45
2023/08/27 10:53:48;;;;;;;3.80;1.53;;;23.10;69.00;;;;;;5253042;28;20415;-46
2023/08/27 10:56:38;;;;;;;4.43;1.63;;;23.30;69.00;;;;;;5243260;28;20490;-46
2023/08/27 10:59:11;;;;;;;1.70;1.60;;;23.10;69.30;;;;;;5243604;28;21022;-46
2023/08/27 11:01:53;;;;;;;3.10;1.83;;;23.10;70.00;;;;;;5242618;28;20468;-47
2023/08/27 11:04:38;;;;;;;1.63;1.40;;;23.30;70.80;;;;;;5242277;28;20429;-45
2023/08/27 11:07:11;;;;;;;5.00;2.17;;;23.10;69.60;;;;;;5239757;28;20563;-47
2023/08/27 11:09:47;;;;;;;2.57;1.90;;;23.00;69.60;;;;;;5240736;28;20437;-46
2023/08/27 11:12:32;;;;;;;2.93;1.73;;;23.10;69.60;;;;;;5244792;28;20435;-47
2023/08/27 11:15:14;;;;;;;7.00;1.77;;;23.20;70.60;;;;;;5244249;28;20890;-45
2023/08/27 11:17:45;;;;;;;3.37;1.23;;;23.00;70.10;;;;;;5250195;28;20486;-45
2023/08/27 11:20:24;;;;;;;2.60;1.60;;;23.00;69.20;;;;;;5235490;28;20838;-44
2023/08/27 11:22:57;;;;;;;2.20;2.00;;;23.00;69.80;;;;;;5237651;28;20529;-46
2023/08/27 11:25:30;;;;;;;2.10;1.90;;;23.00;71.20;;;;;;5232655;28;20555;-46
2023/08/27 11:28:00;;;;;;;1.83;1.73;;;23.10;71.60;;;;;;5240973;28;20433;-47
2023/08/27 11:30:31;;;;;;;9.60;1.80;;;23.30;70.70;;;;;;5243262;28;20501;-44
2023/08/27 11:33:02;;;;;;;3.70;1.80;;;23.40;70.30;;;;;;5241786;28;20186;-44
2023/08/27 11:35:36;;;;;;;8.50;1.97;;;23.30;70.10;;;;;;5241191;28;20198;-44
2023/08/27 11:38:10;;;;;;;2.33;1.97;;;23.20;70.00;;;;;;5232037;28;20173;-45
2023/08/27 11:40:41;;;;;;;1.93;1.83;;;23.00;71.10;;;;;;5243799;28;20428;-45
2023/08/27 11:43:11;;;;;;;9.23;2.30;;;23.00;70.90;;;;;;5217812;28;20474;-45
2023/08/27 11:45:42;;;;;;;3.40;2.20;;;22.90;71.60;;;;;;5241214;28;20198;-45
2023/08/27 11:48:12;;;;;;;4.73;2.47;;;22.80;72.10;;;;;;5245804;28;20196;-46
2023/08/27 11:50:43;;;;;;;4.07;2.20;;;22.70;70.90;;;;;;5256915;28;20182;-44
2023/08/27 11:53:14;;;;;;;1.60;1.50;;;22.60;71.30;;;;;;5244145;28;20180;-44
2023/08/27 11:55:44;;;;;;;2.17;1.80;;;22.40;72.20;;;;;;5256961;22;20206;-46
2023/08/27 11:58:15;;;;;;;1.63;1.53;;;22.30;72.20;;;;;;5178845;28;20192;-47
2023/08/27 12:00:54;;;;;;;1.63;1.60;;;22.20;71.70;;;;;;5198622;28;20596;-46
2023/08/27 12:03:25;;;;;;;3.60;1.80;;;22.30;71.00;;;;;;5196035;28;20294;-47
2023/08/27 12:05:55;;;;;;;1.73;1.67;;;22.40;71.40;;;;;;5198881;28;20443;-46
2023/08/27 12:08:26;;;;;;;1.97;1.73;;;22.60;72.00;;;;;;5195329;28;20500;-46
2023/08/27 12:10:57;;;;;;;1.90;1.80;;;22.70;71.90;;;;;;5197177;28;20183;-46
2023/08/27 12:13:28;;;;;;;1.70;1.70;;;22.90;72.10;;;;;;5196407;28;20206;-47
2023/08/27 12:16:00;;;;;;;2.00;1.90;;;23.20;72.20;;;;;;5194036;28;20233;-47
2023/08/27 12:18:34;;;;;;;4.57;2.40;;;23.20;71.50;;;;;;5198793;28;20175;-47
2023/08/27 12:21:07;;;;;;;2.73;1.83;;;23.00;71.70;;;;;;5195896;28;20426;-46
2023/08/27 12:23:38;;;;;;;7.13;2.03;;;22.80;70.80;;;;;;5195768;28;20431;-46
2023/08/27 12:26:09;;;;;;;9.07;2.90;;;22.50;70.40;;;;;;5199243;28;20512;-46
2023/08/27 12:28:48;;;;;;;2.30;2.10;;;22.40;72.50;;;;;;5200344;28;20179;-47
2023/08/27 12:31:24;;;;;;;1.33;1.23;;;22.30;72.30;;;;;;5216149;28;20446;-47
2023/08/27 12:33:59;;;;;;;1.37;1.27;;;22.20;71.10;;;;;;5197508;28;20477;-46
2023/08/27 12:36:29;;;;;;;3.50;1.43;;;22.10;69.70;;;;;;5214159;28;20947;-46
2023/08/27 12:39:00;;;;;;;2.73;1.90;;;22.20;69.80;;;;;;5196844;28;20449;-47
2023/08/27 12:41:30;;;;;;;1.50;1.40;;;22.30;70.10;;;;;;5192818;28;20204;-47
2023/08/27 12:44:01;;;;;;;2.23;1.83;;;22.40;70.70;;;;;;5199061;28;20192;-47
2023/08/27 12:46:32;;;;;;;5.50;1.83;;;22.40;71.00;;;;;;5197879;28;20231;-45
2023/08/27 12:49:02;;;;;;;8.73;1.93;;;22.10;70.90;;;;;;5186578;28;20218;-47
2023/08/27 12:51:33;;;;;;;1.80;1.70;;;22.10;70.80;;;;;;5193512;28;20519;-48
2023/08/27 12:54:04;;;;;;;8.20;2.13;;;22.00;70.60;;;;;;5195902;28;20705;-46
2023/08/27 12:56:35;;;;;;;3.20;1.93;;;22.10;71.10;;;;;;5196690;28;20683;-46
2023/08/27 12:59:06;;;;;;;4.27;2.10;;;21.90;71.20;;;;;;5203328;28;20435;-45
2023/08/27 13:01:39;;;;;;;4.53;1.43;;;21.70;72.60;;;;;;5213958;28;20523;-47
2023/08/27 13:04:11;;;;;;;7.37;2.23;;;21.80;73.00;;;;;;5197879;28;20184;-46
2023/08/27 13:06:44;;;;;;;1.50;1.50;;;21.70;74.50;;;;;;5203424;28;20542;-47
2023/08/27 13:09:17;;;;;;;2.13;1.70;;;21.70;74.30;;;;;;5197771;28;20437;-47